Terminal Aerodrome Forecast
Issued by NWS

Home | Current Version | Previous Version | Text Only | Print | Product List | Glossary On
Versions: 1 2 3 4 5 6 7 8 9 10 11 12 13 14 15
000
FTAK31 PAFA 191140
TAFAOR
TAF
PAOR 191140Z 1912/2012 30005KT P6SM -SN SCT020 BKN040
      TEMPO 1913/1917 5SM -SN BKN020
     FM192100 VRB03KT P6SM BKN100=

USA.gov is the U.S. government's official web portal to all federal, state and local government web resources and services.